Time;durP1;ratioP1;P1;durP2;ratioP2;P2;SDS_P1;SDS_P2;PMS_P1;PMS_P2;Temp;Humidity;BMP_temperature;BMP_pressure;BME280_temperature;BME280_humidity;BME280_pressure;Samples;Min_cycle;Max_cycle;Signal;HPM_P1;HPM_P2
2022/07/15 00:00:11;;;;;;;6.32;2.40;;;10.20;99.90;;;;;;4955606;29;20106;-73
2022/07/15 00:02:39;;;;;;;4.00;2.17;;;10.40;99.90;;;;;;4938140;29;20031;-71
2022/07/15 00:05:07;;;;;;;4.88;2.35;;;10.50;99.90;;;;;;4955464;29;20027;-71
2022/07/15 00:07:36;;;;;;;6.53;3.05;;;10.70;99.90;;;;;;4937964;29;20038;-72
2022/07/15 00:10:20;;;;;;;6.70;2.60;;;10.80;99.90;;;;;;4955249;29;20507;-72
2022/07/15 00:13:00;;;;;;;4.63;1.85;;;10.80;99.90;;;;;;4937988;29;20041;-72
2022/07/15 00:15:31;;;;;;;4.32;2.20;;;10.90;99.90;;;;;;4937581;29;20030;-72
2022/07/15 00:18:03;;;;;;;4.07;1.77;;;10.90;99.90;;;;;;4938333;29;20029;-72
2022/07/15 00:20:34;;;;;;;4.55;2.50;;;10.90;99.90;;;;;;4938009;29;20019;-71
2022/07/15 00:23:06;;;;;;;4.13;2.20;;;11.00;99.90;;;;;;4937915;29;20074;-73
2022/07/15 00:25:34;;;;;;;6.63;2.47;;;11.00;99.90;;;;;;4955114;29;20424;-72
2022/07/15 00:28:08;;;;;;;3.28;2.28;;;11.10;99.90;;;;;;4937862;29;20031;-72
2022/07/15 00:30:40;;;;;;;5.75;2.10;;;11.20;99.90;;;;;;4955089;29;20051;-73
2022/07/15 00:33:08;;;;;;;4.13;1.95;;;11.30;99.90;;;;;;4937746;29;20034;-72
2022/07/15 00:35:37;;;;;;;4.03;1.75;;;11.40;99.90;;;;;;4954928;29;20388;-72
2022/07/15 00:38:08;;;;;;;3.67;2.00;;;11.50;99.90;;;;;;4937622;29;20034;-72
2022/07/15 00:40:45;;;;;;;4.95;1.80;;;11.50;99.90;;;;;;4954898;29;20042;-71
2022/07/15 00:43:13;;;;;;;3.78;1.83;;;11.50;99.90;;;;;;4937737;29;20038;-71
2022/07/15 00:45:40;;;;;;;4.43;2.10;;;11.60;99.90;;;;;;4955102;29;20038;-72
2022/07/15 00:48:08;;;;;;;5.38;2.20;;;11.70;99.90;;;;;;4954834;29;20473;-72
2022/07/15 00:50:35;;;;;;;4.82;2.38;;;11.80;99.90;;;;;;4954803;29;20023;-72
2022/07/15 00:53:23;;;;;;;4.10;1.58;;;11.80;99.90;;;;;;4954782;29;20120;-71
2022/07/15 00:55:54;;;;;;;5.35;1.77;;;11.90;99.90;;;;;;4937480;29;20178;-71
2022/07/15 00:58:26;;;;;;;4.07;1.67;;;12.00;99.90;;;;;;4955301;29;20098;-72
2022/07/15 01:00:56;;;;;;;3.45;1.60;;;12.00;99.90;;;;;;4954719;29;20042;-71
2022/07/15 01:03:25;;;;;;;3.53;1.95;;;12.00;99.90;;;;;;4954769;29;20074;-72
2022/07/15 01:05:54;;;;;;;4.75;2.50;;;12.10;99.90;;;;;;4937151;29;20129;-72
2022/07/15 01:08:22;;;;;;;3.63;1.50;;;12.10;99.90;;;;;;4954709;29;20037;-72
2022/07/15 01:10:50;;;;;;;3.35;1.77;;;12.20;99.90;;;;;;4937366;29;20038;-72
2022/07/15 01:13:19;;;;;;;3.90;2.03;;;12.30;99.90;;;;;;4954507;29;20038;-71
2022/07/15 01:15:48;;;;;;;6.15;1.73;;;12.40;99.90;;;;;;4937297;29;20019;-72
2022/07/15 01:18:16;;;;;;;3.85;1.73;;;12.50;99.90;;;;;;4954501;29;20022;-72
2022/07/15 01:20:46;;;;;;;3.55;1.60;;;12.50;99.90;;;;;;4954571;29;20103;-71
2022/07/15 01:23:13;;;;;;;3.75;1.30;;;12.60;99.90;;;;;;4954476;29;20055;-71
2022/07/15 01:25:41;;;;;;;5.13;1.70;;;12.60;99.90;;;;;;4954575;28;20551;-71
2022/07/15 01:28:12;;;;;;;2.78;1.60;;;12.70;99.90;;;;;;4957863;29;20051;-74
2022/07/15 01:30:40;;;;;;;3.83;1.20;;;12.90;99.90;;;;;;4958309;29;20106;-71
2022/07/15 01:33:07;;;;;;;3.30;1.58;;;13.00;99.90;;;;;;4940880;29;20027;-71
2022/07/15 01:35:35;;;;;;;4.07;1.60;;;13.00;99.90;;;;;;4940921;29;20020;-71
2022/07/15 01:38:02;;;;;;;5.45;1.48;;;13.10;99.90;;;;;;4940967;29;20127;-71
2022/07/15 01:40:30;;;;;;;3.97;1.50;;;13.10;99.90;;;;;;4940870;29;20046;-71
2022/07/15 01:42:57;;;;;;;3.97;1.48;;;13.20;99.90;;;;;;4940710;29;20023;-71
2022/07/15 01:45:24;;;;;;;4.03;1.80;;;13.30;99.90;;;;;;4958127;29;20376;-71
2022/07/15 01:47:52;;;;;;;3.00;1.17;;;13.30;99.90;;;;;;4957931;29;20042;-72
2022/07/15 01:50:20;;;;;;;4.55;1.92;;;13.40;99.90;;;;;;4940670;29;20034;-72
2022/07/15 01:52:47;;;;;;;2.53;1.70;;;13.40;99.90;;;;;;4940564;29;20039;-72
2022/07/15 01:55:14;;;;;;;5.18;1.83;;;13.60;99.90;;;;;;4940636;29;20032;-72
2022/07/15 01:57:42;;;;;;;7.63;1.70;;;13.70;99.90;;;;;;4957805;29;20031;-72
2022/07/15 02:00:11;;;;;;;3.33;1.50;;;13.70;99.90;;;;;;4958117;29;20019;-72
2022/07/15 02:02:39;;;;;;;4.55;1.48;;;13.80;99.90;;;;;;4940372;29;20039;-72
2022/07/15 02:05:06;;;;;;;3.03;1.13;;;13.90;99.90;;;;;;4940478;29;20519;-72
2022/07/15 02:07:34;;;;;;;2.88;1.30;;;14.00;99.90;;;;;;4957688;29;20063;-72
2022/07/15 02:10:01;;;;;;;6.57;1.20;;;14.20;99.90;;;;;;4957895;29;20045;-72
2022/07/15 02:12:28;;;;;;;3.13;1.25;;;14.20;99.90;;;;;;4940250;29;20031;-72
2022/07/15 02:14:56;;;;;;;4.55;1.52;;;14.20;99.90;;;;;;4957506;29;20035;-72
2022/07/15 02:17:23;;;;;;;3.13;1.67;;;14.30;99.90;;;;;;4957730;29;20114;-72
2022/07/15 02:19:50;;;;;;;3.40;0.98;;;14.40;99.90;;;;;;4957437;29;20027;-72
2022/07/15 02:22:18;;;;;;;2.75;1.00;;;14.30;99.90;;;;;;4957691;29;20046;-72
2022/07/15 02:24:45;;;;;;;2.92;0.80;;;14.30;99.90;;;;;;4939999;29;20024;-72
2022/07/15 02:27:15;;;;;;;2.40;0.57;;;14.30;99.90;;;;;;4957337;29;20066;-72
2022/07/15 02:29:42;;;;;;;1.88;0.50;;;14.30;99.90;;;;;;4957016;29;20396;-72
2022/07/15 02:32:10;;;;;;;2.25;0.70;;;14.40;99.90;;;;;;4957206;29;20318;-72
2022/07/15 02:34:37;;;;;;;1.50;0.80;;;14.50;99.90;;;;;;4957114;29;20015;-72
2022/07/15 02:37:04;;;;;;;2.95;0.90;;;14.60;99.90;;;;;;4939361;29;20028;-72
2022/07/15 02:39:32;;;;;;;2.10;0.90;;;14.70;99.90;;;;;;4957129;29;20031;-73
2022/07/15 02:41:59;;;;;;;3.38;0.70;;;14.60;99.90;;;;;;4957238;29;20082;-72
2022/07/15 02:44:28;;;;;;;2.08;0.60;;;14.70;99.90;;;;;;4939748;29;20102;-73
2022/07/15 02:46:55;;;;;;;8.98;1.27;;;14.60;99.90;;;;;;4957318;29;20034;-73
2022/07/15 02:49:23;;;;;;;1.92;0.70;;;14.80;99.90;;;;;;4957247;29;20023;-73
2022/07/15 02:51:50;;;;;;;1.85;0.60;;;14.80;99.90;;;;;;4957002;29;20051;-73
2022/07/15 02:54:17;;;;;;;2.53;0.63;;;14.80;99.90;;;;;;4939599;29;20392;-73
2022/07/15 02:56:45;;;;;;;1.92;0.70;;;14.80;99.90;;;;;;4939556;29;20392;-73
2022/07/15 02:59:12;;;;;;;1.90;0.55;;;14.80;99.90;;;;;;4939383;29;20044;-73
2022/07/15 03:01:40;;;;;;;1.55;0.70;;;14.80;99.90;;;;;;4939424;29;20511;-73
2022/07/15 03:04:07;;;;;;;1.90;0.68;;;14.80;99.90;;;;;;4956804;29;20039;-73
2022/07/15 03:06:35;;;;;;;4.03;1.25;;;14.90;99.90;;;;;;4956496;29;20508;-73
2022/07/15 03:09:03;;;;;;;3.40;0.95;;;15.00;99.90;;;;;;4956389;29;20027;-73
2022/07/15 03:11:30;;;;;;;2.28;0.77;;;15.20;99.90;;;;;;4956345;29;20030;-73
2022/07/15 03:13:58;;;;;;;1.25;0.40;;;15.20;99.90;;;;;;4956202;29;20107;-73
2022/07/15 03:16:25;;;;;;;1.35;0.50;;;15.30;99.90;;;;;;4956192;29;20102;-73
2022/07/15 03:18:52;;;;;;;1.90;0.50;;;15.30;99.90;;;;;;4956375;29;20050;-73
2022/07/15 03:21:21;;;;;;;2.95;0.73;;;15.20;99.90;;;;;;4956481;29;20022;-73
2022/07/15 03:23:48;;;;;;;2.58;0.50;;;15.40;99.90;;;;;;4939076;29;20031;-73
2022/07/15 03:26:18;;;;;;;4.00;0.90;;;15.50;99.90;;;;;;4938962;29;20075;-73
2022/07/15 03:28:45;;;;;;;1.75;0.50;;;15.40;99.90;;;;;;4923392;29;20062;-73
2022/07/15 03:31:12;;;;;;;4.15;0.70;;;15.40;99.90;;;;;;4956444;29;20110;-73
2022/07/15 03:33:40;;;;;;;4.05;0.80;;;15.50;99.90;;;;;;4938792;29;20078;-73
2022/07/15 03:36:07;;;;;;;5.63;0.98;;;15.60;99.90;;;;;;4956626;29;20103;-73
2022/07/15 03:38:34;;;;;;;2.92;0.80;;;15.50;99.90;;;;;;4956066;29;20020;-74
2022/07/15 03:41:02;;;;;;;2.00;0.60;;;15.60;99.90;;;;;;4955957;29;20086;-73
2022/07/15 03:43:30;;;;;;;3.78;0.80;;;15.70;99.90;;;;;;4938726;29;20108;-73
2022/07/15 03:45:57;;;;;;;3.97;1.05;;;15.70;99.90;;;;;;4955896;29;20567;-73
2022/07/15 03:48:24;;;;;;;3.55;0.90;;;15.60;99.90;;;;;;4956310;28;20051;-73
2022/07/15 03:50:52;;;;;;;4.75;1.00;;;15.60;99.90;;;;;;4955206;29;20425;-73
2022/07/15 03:53:19;;;;;;;2.38;0.98;;;15.60;99.90;;;;;;4938421;29;20035;-74
2022/07/15 03:55:46;;;;;;;3.15;0.75;;;15.60;99.90;;;;;;4938289;29;20483;-73
2022/07/15 03:58:14;;;;;;;3.47;1.25;;;15.60;99.90;;;;;;4938451;29;20027;-73
2022/07/15 04:00:41;;;;;;;3.63;0.80;;;15.50;99.90;;;;;;4938349;29;20503;-73
2022/07/15 04:03:08;;;;;;;2.58;0.80;;;15.50;99.90;;;;;;4938321;29;20023;-73
2022/07/15 04:05:36;;;;;;;1.50;0.60;;;15.50;99.90;;;;;;4955543;29;20047;-73
2022/07/15 04:08:03;;;;;;;3.58;0.80;;;15.50;99.90;;;;;;4955518;29;20081;-73
2022/07/15 04:10:31;;;;;;;3.42;1.23;;;15.50;99.90;;;;;;4955417;29;20031;-73
2022/07/15 04:12:59;;;;;;;2.45;0.82;;;15.60;99.90;;;;;;4937942;29;20027;-73
2022/07/15 04:15:26;;;;;;;2.15;0.70;;;15.60;99.90;;;;;;4955476;29;20024;-73
2022/07/15 04:17:53;;;;;;;4.32;0.80;;;15.50;99.90;;;;;;4955298;29;20027;-73
2022/07/15 04:20:22;;;;;;;1.92;0.50;;;15.60;99.90;;;;;;4955320;29;20030;-73
2022/07/15 04:22:50;;;;;;;4.78;0.77;;;15.60;99.90;;;;;;4955250;29;20026;-73
2022/07/15 04:25:22;;;;;;;2.03;0.80;;;15.60;99.90;;;;;;4955291;29;20031;-73
2022/07/15 04:27:50;;;;;;;2.90;0.80;;;15.50;99.90;;;;;;4937787;29;20038;-73
2022/07/15 04:30:17;;;;;;;1.98;0.63;;;15.50;99.90;;;;;;4955145;29;20031;-72
2022/07/15 04:32:44;;;;;;;2.70;0.80;;;15.50;99.90;;;;;;4954953;29;20384;-73
2022/07/15 04:35:12;;;;;;;3.35;0.65;;;15.50;99.90;;;;;;4955372;29;20039;-73
2022/07/15 04:37:39;;;;;;;3.60;0.90;;;15.50;99.90;;;;;;4937684;29;20096;-73
2022/07/15 04:40:07;;;;;;;2.05;0.77;;;15.40;99.90;;;;;;4954956;29;20019;-73
2022/07/15 04:42:34;;;;;;;2.45;0.60;;;15.40;99.90;;;;;;4937607;29;20114;-73
2022/07/15 04:45:02;;;;;;;2.78;0.80;;;15.40;99.90;;;;;;4937565;29;20523;-72
2022/07/15 04:47:29;;;;;;;3.13;0.60;;;15.40;99.90;;;;;;4954908;29;20365;-73
2022/07/15 04:52:47;;;;;;;3.60;1.05;;;15.30;99.90;;;;;;4954952;29;20038;-73
2022/07/15 04:55:15;;;;;;;3.03;0.80;;;15.20;99.90;;;;;;4937601;29;20162;-73
2022/07/15 04:57:42;;;;;;;2.45;0.60;;;15.10;99.90;;;;;;4954776;29;20104;-73
2022/07/15 05:00:11;;;;;;;1.60;0.68;;;15.20;99.90;;;;;;4954540;29;20019;-73
2022/07/15 05:02:38;;;;;;;1.88;0.70;;;15.20;99.90;;;;;;4954808;29;20065;-73
2022/07/15 05:05:07;;;;;;;2.33;0.80;;;15.10;99.90;;;;;;4954457;29;20027;-73
2022/07/15 05:07:35;;;;;;;2.53;0.70;;;15.10;99.90;;;;;;4954689;29;20023;-73
2022/07/15 05:10:02;;;;;;;5.55;0.95;;;15.00;99.90;;;;;;4953603;29;20042;-73
2022/07/15 05:12:30;;;;;;;2.03;0.77;;;15.00;99.90;;;;;;4937516;29;20031;-73
2022/07/15 05:14:57;;;;;;;2.50;0.80;;;14.90;99.90;;;;;;4954543;29;20024;-73
2022/07/15 05:17:25;;;;;;;2.50;0.60;;;14.90;99.90;;;;;;4954626;29;20058;-73
2022/07/15 05:19:53;;;;;;;2.70;1.08;;;14.80;99.90;;;;;;4937247;29;20050;-72
2022/07/15 05:22:21;;;;;;;1.63;0.50;;;14.80;99.90;;;;;;4954718;29;20480;-72
2022/07/15 05:24:48;;;;;;;1.90;0.70;;;14.70;99.90;;;;;;4954636;29;20078;-72
2022/07/15 05:27:16;;;;;;;1.98;0.60;;;14.60;99.90;;;;;;4954488;29;20023;-72
2022/07/15 05:29:44;;;;;;;1.85;0.77;;;14.60;99.90;;;;;;4937084;29;20351;-72
2022/07/15 05:32:12;;;;;;;3.20;1.10;;;14.60;99.90;;;;;;4954677;29;20023;-72
2022/07/15 05:34:40;;;;;;;4.00;0.80;;;14.60;99.90;;;;;;4954375;29;20046;-72
2022/07/15 05:37:07;;;;;;;3.13;0.70;;;14.60;99.90;;;;;;4954312;29;20102;-72
2022/07/15 05:39:35;;;;;;;2.38;0.60;;;14.60;99.90;;;;;;4954292;29;20026;-72
2022/07/15 05:42:03;;;;;;;1.83;0.88;;;14.60;99.90;;;;;;4954324;29;20073;-72
2022/07/15 05:44:30;;;;;;;1.95;0.70;;;14.50;99.90;;;;;;4954476;29;20026;-73
2022/07/15 05:46:57;;;;;;;3.78;1.00;;;14.40;99.90;;;;;;4954645;29;20023;-73
2022/07/15 05:49:25;;;;;;;1.92;0.77;;;14.40;99.90;;;;;;4954263;29;20057;-71
2022/07/15 05:51:52;;;;;;;3.13;1.00;;;14.30;99.90;;;;;;4936975;29;20498;-72
2022/07/15 05:54:19;;;;;;;4.07;0.80;;;14.30;99.90;;;;;;4954094;29;20158;-72
2022/07/15 05:56:47;;;;;;;2.60;0.80;;;14.30;99.90;;;;;;4937236;29;20082;-72
2022/07/15 05:59:14;;;;;;;2.30;0.80;;;14.20;99.90;;;;;;4954039;29;20440;-73
2022/07/15 06:01:41;;;;;;;4.28;1.05;;;14.20;99.90;;;;;;4936876;29;20033;-72
2022/07/15 06:04:08;;;;;;;3.50;0.88;;;14.20;99.90;;;;;;4936788;29;20049;-73
2022/07/15 06:06:36;;;;;;;3.00;0.70;;;14.10;99.90;;;;;;4953855;29;20047;-73
2022/07/15 06:09:06;;;;;;;1.25;0.70;;;14.00;99.90;;;;;;4953810;29;20496;-73
2022/07/15 06:11:33;;;;;;;2.88;0.90;;;13.90;99.90;;;;;;4954101;28;20027;-73
2022/07/15 06:14:01;;;;;;;1.98;0.80;;;13.80;99.90;;;;;;4956937;29;20106;-73
2022/07/15 06:16:29;;;;;;;1.95;0.90;;;13.70;99.90;;;;;;4957471;29;20027;-73
2022/07/15 06:18:56;;;;;;;2.83;1.00;;;13.50;99.90;;;;;;4957485;29;20019;-72
2022/07/15 06:21:23;;;;;;;3.53;1.10;;;13.50;99.90;;;;;;4957396;29;20106;-72
2022/07/15 06:23:51;;;;;;;2.35;0.90;;;13.30;99.90;;;;;;4957597;29;20037;-72
2022/07/15 06:26:18;;;;;;;3.05;0.80;;;13.20;99.90;;;;;;4939963;29;20030;-72
2022/07/15 06:28:45;;;;;;;2.70;0.73;;;13.10;99.90;;;;;;4956965;29;20035;-72
2022/07/15 06:31:13;;;;;;;1.42;0.75;;;13.10;99.90;;;;;;4957150;29;20483;-71
2022/07/15 06:33:40;;;;;;;3.15;0.98;;;13.00;99.90;;;;;;4957117;29;20019;-72
2022/07/15 06:36:08;;;;;;;4.57;1.80;;;13.00;99.90;;;;;;4957082;29;20154;-72
2022/07/15 06:38:35;;;;;;;2.28;1.33;;;12.90;99.90;;;;;;4957139;29;20479;-72
2022/07/15 06:41:02;;;;;;;4.43;1.70;;;12.80;99.90;;;;;;4957039;29;20110;-73
2022/07/15 06:43:29;;;;;;;2.72;1.52;;;12.80;99.90;;;;;;4957116;29;20031;-72
2022/07/15 06:45:57;;;;;;;3.55;1.17;;;12.70;99.90;;;;;;4957395;29;20027;-72
2022/07/15 06:48:24;;;;;;;2.08;1.10;;;12.50;99.90;;;;;;4939641;29;20395;-72
2022/07/15 06:50:51;;;;;;;3.63;0.82;;;12.40;99.90;;;;;;4939550;29;20027;-73
2022/07/15 06:53:19;;;;;;;2.20;0.70;;;12.20;99.90;;;;;;4939435;29;20035;-73
2022/07/15 06:55:46;;;;;;;2.60;0.82;;;12.10;99.90;;;;;;4956781;29;20015;-73
2022/07/15 06:58:14;;;;;;;1.50;0.70;;;12.00;99.90;;;;;;4956742;29;20026;-72
2022/07/15 07:00:41;;;;;;;2.35;0.98;;;11.80;99.90;;;;;;4956604;29;20031;-72
2022/07/15 07:03:09;;;;;;;3.67;1.10;;;11.70;99.90;;;;;;4956665;29;20050;-73
2022/07/15 07:05:39;;;;;;;2.88;1.00;;;11.60;99.90;;;;;;4956314;29;20058;-73
2022/07/15 07:08:07;;;;;;;3.15;1.35;;;11.60;99.90;;;;;;4939257;29;20039;-72
2022/07/15 07:10:34;;;;;;;4.35;1.10;;;11.60;99.90;;;;;;4956563;29;20028;-72
2022/07/15 07:13:01;;;;;;;4.28;2.08;;;11.70;99.90;;;;;;4956460;29;20123;-73
2022/07/15 07:15:29;;;;;;;5.68;4.55;;;11.80;99.90;;;;;;4956448;29;20520;-73
2022/07/15 07:17:56;;;;;;;10.35;6.75;;;12.00;99.90;;;;;;4956285;29;20023;-73
2022/07/15 07:20:23;;;;;;;9.35;6.15;;;12.10;99.90;;;;;;4956400;29;20057;-72
2022/07/15 07:22:51;;;;;;;13.18;8.18;;;12.10;99.90;;;;;;4956326;29;20453;-73
2022/07/15 07:25:18;;;;;;;27.90;19.45;;;11.90;99.90;;;;;;4956183;28;20102;-73
2022/07/15 07:27:45;;;;;;;339.83;281.55;;;11.60;99.90;;;;;;4956165;29;20027;-73
2022/07/15 07:30:13;;;;;;;100.80;76.28;;;11.40;99.90;;;;;;4938800;29;20031;-73
2022/07/15 07:32:40;;;;;;;46.40;34.10;;;11.20;99.90;;;;;;4956445;29;20114;-73
2022/07/15 07:35:08;;;;;;;80.85;59.80;;;11.10;99.90;;;;;;4938894;29;20062;-73
2022/07/15 07:37:37;;;;;;;55.38;41.45;;;10.90;99.90;;;;;;4956036;29;20028;-72
2022/07/15 07:40:06;;;;;;;37.40;29.38;;;10.80;99.90;;;;;;4955996;29;20015;-74
2022/07/15 07:42:34;;;;;;;34.03;26.75;;;10.70;99.90;;;;;;4955910;29;20392;-73
2022/07/15 07:45:03;;;;;;;30.13;21.33;;;10.70;99.90;;;;;;4955900;29;20030;-72
2022/07/15 07:47:31;;;;;;;13.05;9.05;;;10.60;99.90;;;;;;4955856;29;20121;-72
2022/07/15 07:49:58;;;;;;;10.45;6.75;;;10.50;99.90;;;;;;4938509;29;20113;-72
2022/07/15 07:52:25;;;;;;;8.98;6.28;;;10.40;99.90;;;;;;4938311;29;20027;-73
2022/07/15 07:54:53;;;;;;;11.00;5.90;;;10.40;99.90;;;;;;4955721;29;20027;-72
2022/07/15 07:57:20;;;;;;;7.05;5.20;;;10.30;99.90;;;;;;4938742;29;20138;-73
2022/07/15 07:59:47;;;;;;;8.15;4.55;;;10.30;99.90;;;;;;4955711;29;20062;-73
2022/07/15 08:02:15;;;;;;;5.35;2.83;;;10.20;99.90;;;;;;4956114;29;20015;-73
2022/07/15 08:04:42;;;;;;;4.88;2.72;;;10.20;99.90;;;;;;4955506;29;20074;-73
2022/07/15 08:07:11;;;;;;;7.32;3.30;;;10.10;99.90;;;;;;4955371;29;20147;-73
2022/07/15 08:09:38;;;;;;;10.00;5.18;;;10.00;99.90;;;;;;4955485;29;20059;-73
2022/07/15 08:12:07;;;;;;;8.40;4.63;;;10.10;99.90;;;;;;4955309;29;20023;-73
2022/07/15 08:14:34;;;;;;;8.00;4.88;;;10.10;99.90;;;;;;4955328;29;20079;-73
2022/07/15 08:17:02;;;;;;;9.57;4.80;;;10.00;99.90;;;;;;4955333;29;20102;-73
2022/07/15 08:19:29;;;;;;;6.32;4.25;;;10.00;99.90;;;;;;4938026;29;20118;-72
2022/07/15 08:21:56;;;;;;;6.18;3.38;;;9.90;99.90;;;;;;4955283;29;20019;-73
2022/07/15 08:24:24;;;;;;;5.50;3.38;;;9.90;99.90;;;;;;4955318;29;20133;-73
2022/07/15 08:26:51;;;;;;;6.22;3.65;;;9.80;99.90;;;;;;4955131;29;20046;-73
2022/07/15 08:29:18;;;;;;;8.65;4.30;;;9.80;99.90;;;;;;4955224;29;20027;-73
2022/07/15 08:31:46;;;;;;;8.88;4.70;;;9.70;99.90;;;;;;4937887;29;20031;-73
2022/07/15 08:34:13;;;;;;;6.50;4.32;;;9.70;99.90;;;;;;4955508;29;20019;-73
2022/07/15 08:36:41;;;;;;;7.30;5.20;;;9.70;99.90;;;;;;4954700;28;20046;-74
2022/07/15 08:39:08;;;;;;;9.35;5.60;;;9.60;99.90;;;;;;4954966;29;20369;-74
2022/07/15 08:41:39;;;;;;;12.13;7.18;;;9.50;99.90;;;;;;4954841;29;20153;-72
2022/07/15 08:44:07;;;;;;;11.52;7.78;;;9.60;99.90;;;;;;4937557;29;20494;-72
2022/07/15 08:46:36;;;;;;;10.90;7.15;;;9.40;99.90;;;;;;4937546;29;20038;-72
2022/07/15 08:49:08;;;;;;;8.80;6.65;;;9.40;99.90;;;;;;4954758;29;20114;-72
2022/07/15 08:51:46;;;;;;;8.77;6.20;;;9.40;99.90;;;;;;4954776;29;20135;-72
2022/07/15 08:54:16;;;;;;;9.30;7.13;;;9.30;99.90;;;;;;4954794;29;20027;-72
2022/07/15 08:56:45;;;;;;;11.88;7.20;;;9.30;99.90;;;;;;4937510;29;20026;-72
2022/07/15 08:59:17;;;;;;;7.75;5.45;;;9.20;99.90;;;;;;4937420;29;20058;-72
2022/07/15 09:01:48;;;;;;;10.63;5.60;;;9.10;99.90;;;;;;4937449;29;20480;-72
2022/07/15 09:04:17;;;;;;;7.68;5.72;;;9.00;99.90;;;;;;4955074;29;20030;-72
2022/07/15 09:06:47;;;;;;;7.43;5.25;;;8.90;99.90;;;;;;4954467;29;20047;-72
2022/07/15 09:09:36;;;;;;;8.18;5.28;;;8.90;99.90;;;;;;4937325;29;20053;-72
2022/07/15 09:12:09;;;;;;;9.02;5.63;;;8.90;99.90;;;;;;4954750;29;20023;-73
2022/07/15 09:14:39;;;;;;;9.00;5.18;;;9.00;99.90;;;;;;4954549;29;20027;-72
2022/07/15 09:17:26;;;;;;;9.20;5.60;;;9.00;99.90;;;;;;4937366;29;20400;-72
2022/07/15 09:20:09;;;;;;;8.35;5.75;;;9.00;99.90;;;;;;4937200;29;20115;-73
2022/07/15 09:22:57;;;;;;;9.27;6.15;;;8.90;99.90;;;;;;4937330;29;20055;-72
2022/07/15 09:25:27;;;;;;;10.55;7.88;;;8.80;99.90;;;;;;4954672;29;20484;-72
2022/07/15 09:27:57;;;;;;;13.32;10.23;;;8.80;99.90;;;;;;4937279;29;20036;-72
2022/07/15 09:36:26;;;;;;;11.57;9.20;;;8.70;99.90;;;;;;4955031;29;20374;-73
2022/07/15 09:38:56;;;;;;;11.43;9.60;;;8.70;99.90;;;;;;4954497;29;20107;-73
2022/07/15 09:41:37;;;;;;;13.20;11.02;;;8.60;99.90;;;;;;4937750;29;20376;-72
2022/07/15 09:44:09;;;;;;;14.95;10.93;;;8.60;99.90;;;;;;4937229;29;20036;-71
2022/07/15 09:46:57;;;;;;;14.38;11.52;;;8.50;99.90;;;;;;4954484;28;20058;-72
2022/07/15 09:49:27;;;;;;;15.32;11.13;;;8.50;99.90;;;;;;4940705;29;20031;-73
2022/07/15 09:52:07;;;;;;;13.23;9.93;;;8.60;99.90;;;;;;4958276;29;20106;-72
2022/07/15 09:54:46;;;;;;;11.97;9.23;;;8.50;99.90;;;;;;4958071;29;20064;-72
2022/07/15 09:57:18;;;;;;;14.88;9.60;;;8.50;99.90;;;;;;4940692;29;20027;-73
2022/07/15 09:59:48;;;;;;;12.82;8.85;;;8.50;99.90;;;;;;4958015;29;20025;-72
2022/07/15 10:02:17;;;;;;;13.32;9.88;;;8.40;99.90;;;;;;4940558;29;20131;-73
2022/07/15 10:04:46;;;;;;;14.15;11.20;;;8.40;99.90;;;;;;4957876;29;20031;-72
2022/07/15 10:07:14;;;;;;;13.88;11.93;;;8.30;99.90;;;;;;4957904;29;20043;-73
2022/07/15 10:09:43;;;;;;;18.02;11.63;;;8.30;99.90;;;;;;4957725;29;20019;-73
2022/07/15 10:12:14;;;;;;;12.88;9.82;;;8.20;99.90;;;;;;4957686;29;20023;-73
2022/07/15 10:15:05;;;;;;;13.30;10.30;;;8.20;99.90;;;;;;4957808;29;20046;-73
2022/07/15 10:18:09;;;;;;;15.15;12.30;;;8.20;99.90;;;;;;4940186;29;20078;-73
2022/07/15 10:20:46;;;;;;;28.10;24.13;;;8.20;99.90;;;;;;4879677;29;20116;-73
2022/07/15 10:23:22;;;;;;;24.77;21.17;;;8.20;99.90;;;;;;4933516;29;20047;-73
2022/07/15 10:26:03;;;;;;;18.15;15.40;;;8.20;99.90;;;;;;4957480;29;20051;-74
2022/07/15 10:28:52;;;;;;;17.98;13.93;;;8.10;99.90;;;;;;4940254;29;20059;-72
2022/07/15 10:31:25;;;;;;;18.30;15.38;;;8.10;99.90;;;;;;4957765;29;20035;-73
2022/07/15 10:34:12;;;;;;;16.83;10.85;;;8.10;99.90;;;;;;4939957;29;20444;-73
2022/07/15 10:36:54;;;;;;;13.77;10.15;;;8.00;99.90;;;;;;4944485;29;20039;-72
2022/07/15 10:39:24;;;;;;;14.73;10.32;;;8.00;99.90;;;;;;4957503;29;20032;-73
2022/07/15 10:41:59;;;;;;;14.48;11.82;;;8.00;99.90;;;;;;4957150;29;20070;-72
2022/07/15 10:44:29;;;;;;;14.23;11.80;;;7.90;99.90;;;;;;4939812;29;20082;-73
2022/07/15 10:47:14;;;;;;;18.70;12.73;;;7.90;99.90;;;;;;4957149;29;20055;-71
2022/07/15 10:49:42;;;;;;;19.23;13.40;;;7.80;99.90;;;;;;4957336;29;20436;-71
2022/07/15 10:52:26;;;;;;;14.13;12.60;;;7.80;99.90;;;;;;4957034;29;20476;-72
2022/07/15 10:54:57;;;;;;;14.75;11.98;;;7.80;99.90;;;;;;4957070;29;20523;-72
2022/07/15 10:57:44;;;;;;;16.85;11.70;;;7.70;99.90;;;;;;4956801;29;20496;-72
2022/07/15 11:00:26;;;;;;;16.50;12.07;;;7.70;99.90;;;;;;4956593;29;20106;-72
2022/07/15 11:03:05;;;;;;;14.10;12.10;;;7.70;99.90;;;;;;4957089;29;20543;-72
2022/07/15 11:05:33;;;;;;;15.60;10.68;;;7.70;99.90;;;;;;4956664;29;20129;-73
2022/07/15 11:08:20;;;;;;;14.15;10.25;;;7.60;99.90;;;;;;4939487;29;20023;-72
2022/07/15 11:10:48;;;;;;;11.38;9.95;;;7.60;99.90;;;;;;4956554;29;20090;-73
2022/07/15 11:13:31;;;;;;;14.32;11.30;;;7.50;99.90;;;;;;4956555;29;20449;-72
2022/07/15 11:16:01;;;;;;;13.60;10.88;;;7.50;99.90;;;;;;4939330;29;20062;-73
2022/07/15 11:18:28;;;;;;;14.05;11.63;;;7.50;99.90;;;;;;4939145;29;20131;-72
2022/07/15 11:20:58;;;;;;;16.42;11.02;;;7.50;99.90;;;;;;4956462;29;20055;-72
2022/07/15 11:23:31;;;;;;;13.80;10.88;;;7.50;99.90;;;;;;4956346;29;20392;-72
2022/07/15 11:25:58;;;;;;;14.60;10.32;;;7.50;99.90;;;;;;4939303;29;20031;-72
2022/07/15 11:28:26;;;;;;;14.52;10.57;;;7.50;99.90;;;;;;4956349;29;20028;-72
2022/07/15 11:30:55;;;;;;;16.67;11.05;;;7.50;99.90;;;;;;4956332;29;20023;-72
2022/07/15 11:33:29;;;;;;;15.25;10.77;;;7.50;99.90;;;;;;4956233;29;20039;-72
2022/07/15 11:35:59;;;;;;;15.00;10.13;;;7.50;99.90;;;;;;4956285;29;20026;-72
2022/07/15 11:38:29;;;;;;;12.68;10.02;;;7.50;99.90;;;;;;4956176;29;20023;-71
2022/07/15 11:46:45;;;;;;;15.85;10.85;;;7.30;99.90;;;;;;4956384;29;20062;-73
2022/07/15 11:49:25;;;;;;;14.40;10.70;;;7.40;99.90;;;;;;4956037;29;20031;-73
2022/07/15 11:51:52;;;;;;;16.13;11.43;;;7.30;99.90;;;;;;4956027;29;20038;-72
2022/07/15 11:54:20;;;;;;;17.50;10.82;;;7.30;99.90;;;;;;4955877;29;20455;-72
2022/07/15 11:56:58;;;;;;;14.77;10.88;;;7.30;99.90;;;;;;4955892;29;20051;-73
2022/07/15 11:59:26;;;;;;;15.82;9.57;;;7.30;99.90;;;;;;4938594;29;20487;-72
2022/07/15 12:02:10;;;;;;;12.30;9.40;;;7.20;99.90;;;;;;4938454;29;20025;-72
2022/07/15 12:04:39;;;;;;;13.70;9.98;;;7.10;99.90;;;;;;4956427;29;20036;-72
2022/07/15 12:07:07;;;;;;;13.35;9.55;;;7.20;99.90;;;;;;4955505;29;20054;-72
2022/07/15 12:09:48;;;;;;;10.98;8.63;;;7.20;99.90;;;;;;4955370;28;20027;-72
2022/07/15 12:12:16;;;;;;;10.82;8.32;;;7.20;99.90;;;;;;4955358;29;20026;-72
2022/07/15 12:14:49;;;;;;;9.82;8.25;;;7.20;99.90;;;;;;4955727;29;20016;-72
2022/07/15 12:17:17;;;;;;;11.05;8.23;;;7.20;99.90;;;;;;4955516;29;20023;-72
2022/07/15 12:19:50;;;;;;;9.40;8.50;;;7.20;99.90;;;;;;4955444;29;20099;-72
2022/07/15 12:22:18;;;;;;;12.05;7.70;;;7.20;99.90;;;;;;4955396;29;20388;-73
2022/07/15 12:24:51;;;;;;;12.25;7.55;;;7.20;99.90;;;;;;4938059;29;20027;-73
2022/07/15 12:27:20;;;;;;;10.45;7.65;;;7.20;99.90;;;;;;4955316;29;20077;-74
2022/07/15 12:29:47;;;;;;;11.98;7.65;;;7.20;99.90;;;;;;4955111;29;20468;-73
2022/07/15 12:32:15;;;;;;;10.00;7.22;;;7.20;99.90;;;;;;4955240;29;20027;-72
2022/07/15 12:34:56;;;;;;;11.48;7.28;;;7.10;99.90;;;;;;4955134;29;20038;-73
2022/07/15 12:37:26;;;;;;;10.13;6.43;;;7.10;99.90;;;;;;4937813;29;20441;-73
2022/07/15 12:40:06;;;;;;;12.32;6.30;;;7.10;99.90;;;;;;4955098;29;20026;-73
2022/07/15 12:42:49;;;;;;;12.27;7.13;;;7.10;99.90;;;;;;4937810;29;20028;-73
2022/07/15 12:45:22;;;;;;;10.52;6.38;;;7.00;99.90;;;;;;4937783;29;20480;-73
2022/07/15 12:48:06;;;;;;;7.57;5.72;;;7.00;99.90;;;;;;4955013;29;20132;-72
2022/07/15 12:50:56;;;;;;;9.25;6.13;;;7.00;99.90;;;;;;4954903;29;20028;-72
2022/07/15 12:53:27;;;;;;;7.00;5.75;;;7.00;99.90;;;;;;4955158;29;20024;-73
2022/07/15 12:56:01;;;;;;;9.90;6.03;;;7.00;99.90;;;;;;4937664;29;20028;-73
2022/07/15 12:58:30;;;;;;;6.10;5.25;;;7.00;99.90;;;;;;4954899;29;20436;-73
2022/07/15 13:01:16;;;;;;;8.20;5.65;;;7.10;99.90;;;;;;4955193;29;20058;-73
2022/07/15 13:03:44;;;;;;;8.38;5.60;;;7.10;99.90;;;;;;4954877;29;20023;-74
2022/07/15 13:06:11;;;;;;;7.28;5.57;;;7.10;99.90;;;;;;4937236;29;20058;-73
2022/07/15 13:08:40;;;;;;;6.28;5.10;;;7.10;99.90;;;;;;4954743;29;20369;-73
2022/07/15 13:11:09;;;;;;;7.03;5.65;;;7.00;99.90;;;;;;4954646;29;20098;-74
2022/07/15 13:13:39;;;;;;;7.60;5.30;;;7.00;99.90;;;;;;4954658;29;20034;-74